sensor_id;sensor_type;location;lat;lon;timestamp;pressure;altitude;pressure_sealevel;temperature;humidity
28008;BME280;15333;50.010;20.020;2023-02-10T00:01:02;100508.84;;;-3.43;68.28
28008;BME280;15333;50.010;20.020;2023-02-10T00:04:03;100499.34;;;-3.29;67.71
28008;BME280;15333;50.010;20.020;2023-02-10T00:07:04;100506.31;;;-3.34;68.19
28008;BME280;15333;50.010;20.020;2023-02-10T00:10:06;100500.09;;;-3.45;68.85
28008;BME280;15333;50.010;20.020;2023-02-10T00:13:07;100498.28;;;-3.52;69.28
28008;BME280;15333;50.010;20.020;2023-02-10T00:16:11;100508.69;;;-3.59;69.24
28008;BME280;15333;50.010;20.020;2023-02-10T00:19:12;100500.00;;;-3.55;68.74
28008;BME280;15333;50.010;20.020;2023-02-10T00:22:13;100496.53;;;-3.57;69.52
28008;BME280;15333;50.010;20.020;2023-02-10T00:25:14;100503.47;;;-3.59;68.75
28008;BME280;15333;50.010;20.020;2023-02-10T00:28:15;100511.44;;;-3.43;68.17
28008;BME280;15333;50.010;20.020;2023-02-10T00:31:18;100502.81;;;-3.35;67.62
28008;BME280;15333;50.010;20.020;2023-02-10T00:34:20;100517.69;;;-3.26;67.18
28008;BME280;15333;50.010;20.020;2023-02-10T00:37:21;100522.94;;;-3.23;66.59
28008;BME280;15333;50.010;20.020;2023-02-10T00:40:22;100530.78;;;-3.26;66.61
28008;BME280;15333;50.010;20.020;2023-02-10T00:43:22;100522.91;;;-3.29;66.73
28008;BME280;15333;50.010;20.020;2023-02-10T00:46:23;100535.91;;;-3.41;66.94
28008;BME280;15333;50.010;20.020;2023-02-10T00:49:24;100533.28;;;-3.38;67.47
28008;BME280;15333;50.010;20.020;2023-02-10T00:52:26;100521.06;;;-3.42;68.45
28008;BME280;15333;50.010;20.020;2023-02-10T00:55:26;100524.63;;;-3.31;67.08
28008;BME280;15333;50.010;20.020;2023-02-10T00:58:27;100537.72;;;-3.31;67.32
28008;BME280;15333;50.010;20.020;2023-02-10T01:01:29;100531.56;;;-3.36;66.28
28008;BME280;15333;50.010;20.020;2023-02-10T01:04:30;100533.28;;;-3.41;66.99
28008;BME280;15333;50.010;20.020;2023-02-10T01:07:31;100517.59;;;-3.41;67.02
28008;BME280;15333;50.010;20.020;2023-02-10T01:10:33;100527.97;;;-3.47;67.46
28008;BME280;15333;50.010;20.020;2023-02-10T01:13:37;100529.66;;;-3.54;67.46
28008;BME280;15333;50.010;20.020;2023-02-10T01:16:38;100522.72;;;-3.50;67.00
28008;BME280;15333;50.010;20.020;2023-02-10T01:19:42;100515.72;;;-3.53;67.32
28008;BME280;15333;50.010;20.020;2023-02-10T01:22:43;100507.78;;;-3.62;67.65
28008;BME280;15333;50.010;20.020;2023-02-10T01:25:44;100513.91;;;-3.62;67.49
28008;BME280;15333;50.010;20.020;2023-02-10T01:28:45;100507.72;;;-3.68;68.07
28008;BME280;15333;50.010;20.020;2023-02-10T01:31:46;100515.59;;;-3.70;67.86
28008;BME280;15333;50.010;20.020;2023-02-10T01:34:47;100501.53;;;-3.81;68.68
28008;BME280;15333;50.010;20.020;2023-02-10T01:37:48;100496.22;;;-3.87;68.44
28008;BME280;15333;50.010;20.020;2023-02-10T01:40:49;100498.81;;;-3.90;68.25
28008;BME280;15333;50.010;20.020;2023-02-10T01:44:06;100486.63;;;-3.88;68.36
28008;BME280;15333;50.010;20.020;2023-02-10T01:47:08;100472.66;;;-3.90;69.12
28008;BME280;15333;50.010;20.020;2023-02-10T01:50:09;100482.25;;;-3.92;68.36
28008;BME280;15333;50.010;20.020;2023-02-10T01:53:11;100481.25;;;-4.03;68.10
28008;BME280;15333;50.010;20.020;2023-02-10T01:56:14;100483.81;;;-4.09;68.58
28008;BME280;15333;50.010;20.020;2023-02-10T01:59:17;100482.03;;;-4.10;68.25
28008;BME280;15333;50.010;20.020;2023-02-10T02:02:20;100481.88;;;-4.28;69.03
28008;BME280;15333;50.010;20.020;2023-02-10T02:05:29;100478.34;;;-4.30;69.25
28008;BME280;15333;50.010;20.020;2023-02-10T02:08:30;100471.31;;;-4.38;69.74
28008;BME280;15333;50.010;20.020;2023-02-10T02:15:07;100480.84;;;-4.40;70.12
28008;BME280;15333;50.010;20.020;2023-02-10T02:18:24;100475.88;;;-4.17;68.68
28008;BME280;15333;50.010;20.020;2023-02-10T02:25:30;100456.97;;;-3.93;67.85
28008;BME280;15333;50.010;20.020;2023-02-10T02:35:03;100452.72;;;-3.79;67.46
28008;BME280;15333;50.010;20.020;2023-02-10T02:38:05;100452.72;;;-3.79;67.09
28008;BME280;15333;50.010;20.020;2023-02-10T02:41:07;100452.72;;;-3.79;66.95
28008;BME280;15333;50.010;20.020;2023-02-10T02:44:08;100457.06;;;-3.79;67.30
28008;BME280;15333;50.010;20.020;2023-02-10T02:47:13;100458.75;;;-3.86;67.44
28008;BME280;15333;50.010;20.020;2023-02-10T02:50:45;100446.53;;;-3.88;66.37
28008;BME280;15333;50.010;20.020;2023-02-10T02:54:09;100449.13;;;-3.90;67.47
28008;BME280;15333;50.010;20.020;2023-02-10T02:57:18;100443.06;;;-3.86;67.24
28008;BME280;15333;50.010;20.020;2023-02-10T03:00:25;100444.81;;;-3.86;66.69
28008;BME280;15333;50.010;20.020;2023-02-10T03:03:27;100445.63;;;-3.92;67.08
28008;BME280;15333;50.010;20.020;2023-02-10T03:06:28;100449.16;;;-3.87;66.96
28008;BME280;15333;50.010;20.020;2023-02-10T03:09:29;100440.47;;;-3.83;66.64
28008;BME280;15333;50.010;20.020;2023-02-10T03:12:30;100450.00;;;-3.92;66.72
28008;BME280;15333;50.010;20.020;2023-02-10T03:15:32;100450.94;;;-3.83;66.52
28008;BME280;15333;50.010;20.020;2023-02-10T03:18:33;100456.16;;;-3.86;66.20
28008;BME280;15333;50.010;20.020;2023-02-10T03:21:34;100460.53;;;-3.85;66.81
28008;BME280;15333;50.010;20.020;2023-02-10T03:24:34;100445.69;;;-3.83;66.63
28008;BME280;15333;50.010;20.020;2023-02-10T03:27:36;100454.34;;;-3.90;66.67
28008;BME280;15333;50.010;20.020;2023-02-10T03:30:37;100465.69;;;-3.89;66.90
28008;BME280;15333;50.010;20.020;2023-02-10T03:33:38;100468.31;;;-3.88;66.85
28008;BME280;15333;50.010;20.020;2023-02-10T03:36:39;100463.09;;;-3.91;66.79
28008;BME280;15333;50.010;20.020;2023-02-10T03:39:40;100465.75;;;-3.85;66.57
28008;BME280;15333;50.010;20.020;2023-02-10T03:42:41;100470.13;;;-3.84;66.45
28008;BME280;15333;50.010;20.020;2023-02-10T03:45:42;100470.03;;;-3.90;66.87
28008;BME280;15333;50.010;20.020;2023-02-10T03:48:43;100464.84;;;-3.87;66.88
28008;BME280;15333;50.010;20.020;2023-02-10T03:51:44;100464.75;;;-3.96;67.40
28008;BME280;15333;50.010;20.020;2023-02-10T03:54:45;100459.38;;;-4.14;68.80
28008;BME280;15333;50.010;20.020;2023-02-10T03:57:46;100467.78;;;-4.41;69.29
28008;BME280;15333;50.010;20.020;2023-02-10T04:00:47;100469.34;;;-4.57;69.41
28008;BME280;15333;50.010;20.020;2023-02-10T04:03:48;100478.88;;;-4.60;70.73
28008;BME280;15333;50.010;20.020;2023-02-10T04:06:49;100478.28;;;-4.37;69.73
28008;BME280;15333;50.010;20.020;2023-02-10T04:09:50;100483.47;;;-4.40;70.04
28008;BME280;15333;50.010;20.020;2023-02-10T04:12:51;100483.56;;;-4.33;69.68
28008;BME280;15333;50.010;20.020;2023-02-10T04:16:19;100483.47;;;-4.40;70.27
28008;BME280;15333;50.010;20.020;2023-02-10T04:19:20;100483.50;;;-4.37;68.89
28008;BME280;15333;50.010;20.020;2023-02-10T04:22:22;100477.47;;;-4.34;68.88
28008;BME280;15333;50.010;20.020;2023-02-10T04:25:22;100490.38;;;-4.45;68.58
28008;BME280;15333;50.010;20.020;2023-02-10T04:28:24;100485.25;;;-4.37;69.31
28008;BME280;15333;50.010;20.020;2023-02-10T04:31:25;100485.13;;;-4.46;68.75
28008;BME280;15333;50.010;20.020;2023-02-10T04:34:26;100485.09;;;-4.51;69.30
28008;BME280;15333;50.010;20.020;2023-02-10T04:37:26;100493.78;;;-4.52;69.63
28008;BME280;15333;50.010;20.020;2023-02-10T04:40:28;100486.84;;;-4.47;69.48
28008;BME280;15333;50.010;20.020;2023-02-10T04:43:28;100486.03;;;-4.44;70.07
28008;BME280;15333;50.010;20.020;2023-02-10T04:46:30;100490.53;;;-4.34;69.74
28008;BME280;15333;50.010;20.020;2023-02-10T04:49:30;100497.41;;;-4.41;70.30
28008;BME280;15333;50.010;20.020;2023-02-10T04:52:31;100501.75;;;-4.40;69.52
28008;BME280;15333;50.010;20.020;2023-02-10T04:55:33;100508.72;;;-4.42;70.17
28008;BME280;15333;50.010;20.020;2023-02-10T04:58:35;100505.19;;;-4.45;70.14
28008;BME280;15333;50.010;20.020;2023-02-10T05:01:36;100511.22;;;-4.49;71.91
28008;BME280;15333;50.010;20.020;2023-02-10T05:04:37;100507.63;;;-4.59;72.58
28008;BME280;15333;50.010;20.020;2023-02-10T05:07:38;100509.44;;;-4.55;72.50
28008;BME280;15333;50.010;20.020;2023-02-10T05:10:39;100511.88;;;-4.67;73.41
28008;BME280;15333;50.010;20.020;2023-02-10T05:13:40;100512.59;;;-4.76;73.51
28008;BME280;15333;50.010;20.020;2023-02-10T05:16:41;100512.53;;;-4.83;74.63
28008;BME280;15333;50.010;20.020;2023-02-10T05:19:42;100508.16;;;-4.84;75.12
28008;BME280;15333;50.010;20.020;2023-02-10T05:22:43;100517.41;;;-5.07;76.38
28008;BME280;15333;50.010;20.020;2023-02-10T05:25:44;100518.88;;;-5.23;76.75
28008;BME280;15333;50.010;20.020;2023-02-10T05:28:46;100518.78;;;-5.31;77.53
28008;BME280;15333;50.010;20.020;2023-02-10T05:31:47;100522.19;;;-5.35;78.20
28008;BME280;15333;50.010;20.020;2023-02-10T05:34:48;100527.66;;;-5.20;79.24
28008;BME280;15333;50.010;20.020;2023-02-10T05:37:49;100527.66;;;-5.20;79.72
28008;BME280;15333;50.010;20.020;2023-02-10T05:40:50;100538.03;;;-5.23;79.14
28008;BME280;15333;50.010;20.020;2023-02-10T05:43:51;100535.59;;;-5.12;79.12
28008;BME280;15333;50.010;20.020;2023-02-10T05:46:52;100537.25;;;-5.17;79.13
28008;BME280;15333;50.010;20.020;2023-02-10T05:49:52;100525.03;;;-5.21;80.52
28008;BME280;15333;50.010;20.020;2023-02-10T05:52:53;100531.34;;;-5.05;80.41
28008;BME280;15333;50.010;20.020;2023-02-10T05:55:54;100534.91;;;-5.00;80.41
28008;BME280;15333;50.010;20.020;2023-02-10T05:58:56;100536.50;;;-5.11;80.50
28008;BME280;15333;50.010;20.020;2023-02-10T06:01:56;100537.50;;;-5.00;79.95
28008;BME280;15333;50.010;20.020;2023-02-10T06:04:57;100533.28;;;-4.92;80.02
28008;BME280;15333;50.010;20.020;2023-02-10T06:07:58;100538.44;;;-4.95;79.87
28008;BME280;15333;50.010;20.020;2023-02-10T06:10:59;100544.69;;;-4.86;79.58
28008;BME280;15333;50.010;20.020;2023-02-10T06:14:00;100544.72;;;-4.84;79.59
28008;BME280;15333;50.010;20.020;2023-02-10T06:17:01;100536.88;;;-4.84;79.74
28008;BME280;15333;50.010;20.020;2023-02-10T06:20:02;100536.88;;;-4.84;79.97
28008;BME280;15333;50.010;20.020;2023-02-10T06:23:04;100549.19;;;-4.74;79.64
28008;BME280;15333;50.010;20.020;2023-02-10T06:26:05;100558.00;;;-4.69;79.12
28008;BME280;15333;50.010;20.020;2023-02-10T06:29:06;100552.78;;;-4.69;79.07
28008;BME280;15333;50.010;20.020;2023-02-10T06:32:07;100546.66;;;-4.71;78.61
28008;BME280;15333;50.010;20.020;2023-02-10T06:35:08;100549.34;;;-4.65;79.30
28008;BME280;15333;50.010;20.020;2023-02-10T06:38:09;100549.41;;;-4.59;78.25
28008;BME280;15333;50.010;20.020;2023-02-10T06:41:10;100551.25;;;-4.52;78.93
28008;BME280;15333;50.010;20.020;2023-02-10T06:44:11;100547.72;;;-4.57;77.88
28008;BME280;15333;50.010;20.020;2023-02-10T06:47:12;100544.38;;;-4.44;78.52
28008;BME280;15333;50.010;20.020;2023-02-10T06:50:13;100549.69;;;-4.38;77.92
28008;BME280;15333;50.010;20.020;2023-02-10T06:53:14;100550.59;;;-4.36;77.51
28008;BME280;15333;50.010;20.020;2023-02-10T06:56:15;100558.50;;;-4.29;78.02
28008;BME280;15333;50.010;20.020;2023-02-10T06:59:16;100551.56;;;-4.27;77.31
28008;BME280;15333;50.010;20.020;2023-02-10T07:02:17;100553.47;;;-4.14;77.60
28008;BME280;15333;50.010;20.020;2023-02-10T07:05:19;100563.00;;;-4.16;77.04
28008;BME280;15333;50.010;20.020;2023-02-10T07:08:20;100564.81;;;-4.11;76.48
28008;BME280;15333;50.010;20.020;2023-02-10T07:11:21;100557.00;;;-4.09;76.57
28008;BME280;15333;50.010;20.020;2023-02-10T07:14:21;100565.88;;;-3.98;76.17
28008;BME280;15333;50.010;20.020;2023-02-10T07:17:22;100565.94;;;-3.92;75.68
28008;BME280;15333;50.010;20.020;2023-02-10T07:20:23;100576.41;;;-3.89;75.86
28008;BME280;15333;50.010;20.020;2023-02-10T07:23:24;100583.63;;;-3.67;75.49
28008;BME280;15333;50.010;20.020;2023-02-10T07:26:25;100579.31;;;-3.63;74.49
28008;BME280;15333;50.010;20.020;2023-02-10T07:29:26;100571.44;;;-3.62;74.51
28008;BME280;15333;50.010;20.020;2023-02-10T07:32:27;100569.78;;;-3.55;74.40
28008;BME280;15333;50.010;20.020;2023-02-10T07:35:28;100571.56;;;-3.52;74.23
28008;BME280;15333;50.010;20.020;2023-02-10T07:38:29;100577.78;;;-3.41;73.33
28008;BME280;15333;50.010;20.020;2023-02-10T07:41:30;100571.78;;;-3.28;73.08
28008;BME280;15333;50.010;20.020;2023-02-10T07:44:31;100579.63;;;-3.28;72.99
28008;BME280;15333;50.010;20.020;2023-02-10T07:47:32;100578.06;;;-3.08;72.80
28008;BME280;15333;50.010;20.020;2023-02-10T07:50:32;100577.16;;;-3.10;72.37
28008;BME280;15333;50.010;20.020;2023-02-10T07:53:34;100565.88;;;-3.01;71.35
28008;BME280;15333;50.010;20.020;2023-02-10T07:56:34;100579.13;;;-2.85;71.83
28008;BME280;15333;50.010;20.020;2023-02-10T07:59:35;100579.13;;;-2.77;71.04
28008;BME280;15333;50.010;20.020;2023-02-10T08:02:36;100584.38;;;-2.76;70.14
28008;BME280;15333;50.010;20.020;2023-02-10T08:05:37;100594.03;;;-2.68;70.66
28008;BME280;15333;50.010;20.020;2023-02-10T08:08:38;100595.00;;;-2.57;70.22
28008;BME280;15333;50.010;20.020;2023-02-10T08:11:39;100588.97;;;-2.41;69.18
28008;BME280;15333;50.010;20.020;2023-02-10T08:14:40;100596.84;;;-2.44;69.25
28008;BME280;15333;50.010;20.020;2023-02-10T08:17:41;100603.00;;;-2.36;70.09
28008;BME280;15333;50.010;20.020;2023-02-10T08:20:42;100608.34;;;-2.12;69.45
28008;BME280;15333;50.010;20.020;2023-02-10T08:23:43;100610.13;;;-2.03;68.50
28008;BME280;15333;50.010;20.020;2023-02-10T08:26:44;100606.66;;;-1.98;68.28
28008;BME280;15333;50.010;20.020;2023-02-10T08:29:45;100618.09;;;-1.86;68.06
28008;BME280;15333;50.010;20.020;2023-02-10T08:32:46;100616.38;;;-1.78;68.52
28008;BME280;15333;50.010;20.020;2023-02-10T08:35:47;100623.34;;;-1.76;67.06
28008;BME280;15333;50.010;20.020;2023-02-10T08:38:49;100616.41;;;-1.66;67.45
28008;BME280;15333;50.010;20.020;2023-02-10T08:41:51;100619.91;;;-1.55;67.90
28008;BME280;15333;50.010;20.020;2023-02-10T08:44:52;100605.97;;;-1.30;67.13
28008;BME280;15333;50.010;20.020;2023-02-10T08:47:53;100607.75;;;-1.29;66.15
28008;BME280;15333;50.010;20.020;2023-02-10T08:50:54;100599.00;;;-1.22;66.56
28008;BME280;15333;50.010;20.020;2023-02-10T08:53:55;100595.50;;;-1.08;64.72
28008;BME280;15333;50.010;20.020;2023-02-10T08:56:56;100591.97;;;-1.16;65.76
28008;BME280;15333;50.010;20.020;2023-02-10T08:59:57;100593.72;;;-1.03;64.27
28008;BME280;15333;50.010;20.020;2023-02-10T09:02:58;100591.09;;;-1.03;65.13
28008;BME280;15333;50.010;20.020;2023-02-10T09:05:59;100597.22;;;-1.10;64.80
28008;BME280;15333;50.010;20.020;2023-02-10T09:09:00;100604.22;;;-0.85;64.10
28008;BME280;15333;50.010;20.020;2023-02-10T09:12:03;100618.25;;;-0.77;64.93
28008;BME280;15333;50.010;20.020;2023-02-10T09:15:04;100612.13;;;-0.79;64.08
28008;BME280;15333;50.010;20.020;2023-02-10T09:18:06;100613.00;;;-0.68;64.53
28008;BME280;15333;50.010;20.020;2023-02-10T09:21:08;100614.75;;;-0.58;63.39
28008;BME280;15333;50.010;20.020;2023-02-10T09:24:09;100616.47;;;-0.51;63.52
28008;BME280;15333;50.010;20.020;2023-02-10T09:27:10;100605.97;;;-0.66;63.19
28008;BME280;15333;50.010;20.020;2023-02-10T09:30:11;100614.72;;;-0.55;63.38
28008;BME280;15333;50.010;20.020;2023-02-10T09:33:12;100620.00;;;-0.52;64.42
28008;BME280;15333;50.010;20.020;2023-02-10T09:36:18;100616.47;;;-0.45;64.07
28008;BME280;15333;50.010;20.020;2023-02-10T09:39:19;100611.19;;;-0.29;64.04
28008;BME280;15333;50.010;20.020;2023-02-10T09:45:46;100593.63;;;-0.26;62.38
28008;BME280;15333;50.010;20.020;2023-02-10T09:55:28;100588.09;;;0.30;61.26
28008;BME280;15333;50.010;20.020;2023-02-10T09:58:44;100598.63;;;0.33;61.04
28008;BME280;15333;50.010;20.020;2023-02-10T10:01:52;100600.31;;;0.50;59.65
28008;BME280;15333;50.010;20.020;2023-02-10T10:04:57;100600.19;;;0.68;59.69
28008;BME280;15333;50.010;20.020;2023-02-10T10:08:00;100598.47;;;0.61;59.60
28008;BME280;15333;50.010;20.020;2023-02-10T10:14:39;100595.78;;;0.70;58.73
28008;BME280;15333;50.010;20.020;2023-02-10T10:20:55;100587.69;;;0.94;58.62
28008;BME280;15333;50.010;20.020;2023-02-10T10:27:16;100573.44;;;1.20;56.74
28008;BME280;15333;50.010;20.020;2023-02-10T10:30:30;100566.31;;;1.28;56.71
28008;BME280;15333;50.010;20.020;2023-02-10T10:36:43;100566.25;;;1.34;57.36
28008;BME280;15333;50.010;20.020;2023-02-10T10:39:55;100574.84;;;1.51;56.50
28008;BME280;15333;50.010;20.020;2023-02-10T10:42:59;100567.56;;;1.76;55.90
28008;BME280;15333;50.010;20.020;2023-02-10T10:46:14;100564.78;;;1.85;56.22
28008;BME280;15333;50.010;20.020;2023-02-10T10:49:15;100562.13;;;1.89;55.88
28008;BME280;15333;50.010;20.020;2023-02-10T10:52:29;100567.28;;;1.99;55.05
28008;BME280;15333;50.010;20.020;2023-02-10T10:55:38;100563.78;;;1.96;54.58
28008;BME280;15333;50.010;20.020;2023-02-10T10:58:42;100553.16;;;2.00;55.19
28008;BME280;15333;50.010;20.020;2023-02-10T11:01:47;100539.91;;;2.06;54.86
28008;BME280;15333;50.010;20.020;2023-02-10T11:05:13;100554.94;;;2.01;54.34
28008;BME280;15333;50.010;20.020;2023-02-10T11:08:28;100536.13;;;2.26;54.41
28008;BME280;15333;50.010;20.020;2023-02-10T11:11:32;100544.91;;;2.27;54.40
28008;BME280;15333;50.010;20.020;2023-02-10T11:14:40;100537.25;;;2.68;53.93
28008;BME280;15333;50.010;20.020;2023-02-10T11:17:41;100534.84;;;2.53;52.85
28008;BME280;15333;50.010;20.020;2023-02-10T11:20:55;100532.09;;;2.59;53.46
28008;BME280;15333;50.010;20.020;2023-02-10T11:23:56;100527.50;;;2.70;53.17
28008;BME280;15333;50.010;20.020;2023-02-10T11:30:01;100532.59;;;2.83;52.80
28008;BME280;15333;50.010;20.020;2023-02-10T11:33:05;100518.22;;;2.99;51.98
28008;BME280;15333;50.010;20.020;2023-02-10T11:36:08;100517.75;;;3.25;52.39
28008;BME280;15333;50.010;20.020;2023-02-10T11:39:39;100517.75;;;3.26;51.86
28008;BME280;15333;50.010;20.020;2023-02-10T11:42:46;100516.88;;;3.26;50.92
28008;BME280;15333;50.010;20.020;2023-02-10T11:45:58;100517.16;;;3.09;50.85
28008;BME280;15333;50.010;20.020;2023-02-10T11:49:03;100513.66;;;3.07;51.07
28008;BME280;15333;50.010;20.020;2023-02-10T11:52:04;100514.38;;;3.18;51.18
28008;BME280;15333;50.010;20.020;2023-02-10T11:55:12;100514.25;;;3.23;51.62
28008;BME280;15333;50.010;20.020;2023-02-10T12:01:52;100503.00;;;3.58;51.23
28008;BME280;15333;50.010;20.020;2023-02-10T12:05:08;100505.63;;;3.59;51.39
28008;BME280;15333;50.010;20.020;2023-02-10T12:08:25;100502.22;;;3.54;49.91
28008;BME280;15333;50.010;20.020;2023-02-10T12:31:23;100511.28;;;2.92;52.21
28008;BME280;15333;50.010;20.020;2023-02-10T12:34:48;100500.78;;;2.89;51.72
28008;BME280;15333;50.010;20.020;2023-02-10T12:41:30;100515.75;;;2.88;52.57
28008;BME280;15333;50.010;20.020;2023-02-10T12:45:01;100505.91;;;2.98;52.23
28008;BME280;15333;50.010;20.020;2023-02-10T12:48:09;100508.88;;;2.78;52.79
28008;BME280;15333;50.010;20.020;2023-02-10T12:57:49;100525.72;;;2.72;54.76
28008;BME280;15333;50.010;20.020;2023-02-10T13:00:56;100520.50;;;2.69;53.85
28008;BME280;15333;50.010;20.020;2023-02-10T13:04:16;100520.28;;;2.82;54.06
28008;BME280;15333;50.010;20.020;2023-02-10T13:07:43;100528.50;;;2.63;54.45
28008;BME280;15333;50.010;20.020;2023-02-10T13:10:48;100534.59;;;2.68;54.77
28008;BME280;15333;50.010;20.020;2023-02-10T13:13:51;100518.97;;;2.53;54.32
28008;BME280;15333;50.010;20.020;2023-02-10T13:16:57;100511.84;;;2.58;55.00
28008;BME280;15333;50.010;20.020;2023-02-10T13:20:09;100515.47;;;2.51;54.31
28008;BME280;15333;50.010;20.020;2023-02-10T13:33:50;100524.06;;;2.64;54.94
28008;BME280;15333;50.010;20.020;2023-02-10T13:40:17;100535.09;;;2.35;55.22
28008;BME280;15333;50.010;20.020;2023-02-10T13:43:32;100521.66;;;2.50;55.50
28008;BME280;15333;50.010;20.020;2023-02-10T13:46:34;100518.03;;;2.56;54.50
28008;BME280;15333;50.010;20.020;2023-02-10T13:49:49;100520.88;;;2.42;55.09
28008;BME280;15333;50.010;20.020;2023-02-10T13:53:03;100535.81;;;2.48;56.55
28008;BME280;15333;50.010;20.020;2023-02-10T14:02:21;100537.72;;;2.35;62.59
28008;BME280;15333;50.010;20.020;2023-02-10T14:05:34;100536.75;;;2.42;61.99
28008;BME280;15333;50.010;20.020;2023-02-10T14:08:37;100544.75;;;2.36;62.14
28008;BME280;15333;50.010;20.020;2023-02-10T14:11:41;100550.88;;;2.40;62.51
28008;BME280;15333;50.010;20.020;2023-02-10T14:14:43;100548.59;;;2.73;61.55
28008;BME280;15333;50.010;20.020;2023-02-10T14:17:53;100538.38;;;2.52;62.97
28008;BME280;15333;50.010;20.020;2023-02-10T14:21:04;100555.19;;;2.47;64.34
28008;BME280;15333;50.010;20.020;2023-02-10T14:24:12;100549.81;;;2.51;64.96
28008;BME280;15333;50.010;20.020;2023-02-10T14:27:16;100550.00;;;2.39;66.32
28008;BME280;15333;50.010;20.020;2023-02-10T14:30:36;100557.88;;;2.42;65.96
28008;BME280;15333;50.010;20.020;2023-02-10T14:33:37;100572.16;;;2.29;66.35
28008;BME280;15333;50.010;20.020;2023-02-10T14:36:38;100555.28;;;2.41;66.18
28008;BME280;15333;50.010;20.020;2023-02-10T14:39:39;100561.59;;;2.29;66.07
28008;BME280;15333;50.010;20.020;2023-02-10T14:42:41;100571.28;;;2.28;66.21
28008;BME280;15333;50.010;20.020;2023-02-10T14:45:44;100568.69;;;2.27;66.54
28008;BME280;15333;50.010;20.020;2023-02-10T14:48:46;100588.09;;;2.23;66.89
28008;BME280;15333;50.010;20.020;2023-02-10T14:51:48;100592.50;;;2.22;66.56
28008;BME280;15333;50.010;20.020;2023-02-10T14:54:49;100580.16;;;2.24;67.19
28008;BME280;15333;50.010;20.020;2023-02-10T14:57:50;100589.88;;;2.21;66.88
28008;BME280;15333;50.010;20.020;2023-02-10T15:01:22;100598.66;;;2.23;67.36
28008;BME280;15333;50.010;20.020;2023-02-10T15:04:25;100586.44;;;2.14;67.85
28008;BME280;15333;50.010;20.020;2023-02-10T15:07:30;100590.00;;;2.12;66.99
28008;BME280;15333;50.010;20.020;2023-02-10T15:10:35;100593.63;;;2.02;67.38
28008;BME280;15333;50.010;20.020;2023-02-10T15:13:45;100599.00;;;1.95;67.58
28008;BME280;15333;50.010;20.020;2023-02-10T15:16:47;100604.28;;;1.95;67.31
28008;BME280;15333;50.010;20.020;2023-02-10T15:20:16;100606.06;;;1.93;67.36
28008;BME280;15333;50.010;20.020;2023-02-10T15:23:20;100608.78;;;1.87;66.58
28008;BME280;15333;50.010;20.020;2023-02-10T15:26:27;100615.06;;;1.77;67.50
28008;BME280;15333;50.010;20.020;2023-02-10T15:29:35;100609.81;;;1.71;67.13
28008;BME280;15333;50.010;20.020;2023-02-10T15:32:37;100618.66;;;1.70;66.84
28008;BME280;15333;50.010;20.020;2023-02-10T15:35:38;100622.31;;;1.54;66.98
28008;BME280;15333;50.010;20.020;2023-02-10T15:45:13;100643.44;;;1.54;67.64
28008;BME280;15333;50.010;20.020;2023-02-10T15:48:23;100632.91;;;1.51;68.13
28008;BME280;15333;50.010;20.020;2023-02-10T15:51:26;100638.28;;;1.42;67.74
28008;BME280;15333;50.010;20.020;2023-02-10T15:54:27;100640.88;;;1.46;67.08
28008;BME280;15333;50.010;20.020;2023-02-10T15:57:30;100647.91;;;1.46;67.99
28008;BME280;15333;50.010;20.020;2023-02-10T16:00:34;100634.72;;;1.43;67.88
28008;BME280;15333;50.010;20.020;2023-02-10T16:03:35;100629.38;;;1.52;67.96
28008;BME280;15333;50.010;20.020;2023-02-10T16:06:36;100633.00;;;1.40;68.55
28008;BME280;15333;50.010;20.020;2023-02-10T16:09:38;100630.31;;;1.48;68.14
28008;BME280;15333;50.010;20.020;2023-02-10T16:12:39;100631.19;;;1.47;67.51
28008;BME280;15333;50.010;20.020;2023-02-10T16:15:42;100629.50;;;1.40;67.85
28008;BME280;15333;50.010;20.020;2023-02-10T16:18:44;100635.59;;;1.45;67.76
28008;BME280;15333;50.010;20.020;2023-02-10T16:21:46;100638.28;;;1.39;67.59
28008;BME280;15333;50.010;20.020;2023-02-10T16:24:46;100641.75;;;1.47;67.62
28008;BME280;15333;50.010;20.020;2023-02-10T16:27:49;100636.47;;;1.47;68.61
28008;BME280;15333;50.010;20.020;2023-02-10T16:30:50;100634.78;;;1.37;68.47
28008;BME280;15333;50.010;20.020;2023-02-10T16:33:51;100634.78;;;1.38;69.22
28008;BME280;15333;50.010;20.020;2023-02-10T16:36:52;100641.81;;;1.39;68.77
28008;BME280;15333;50.010;20.020;2023-02-10T16:39:53;100633.88;;;1.41;69.31
28008;BME280;15333;50.010;20.020;2023-02-10T16:42:54;100641.75;;;1.44;69.52
28008;BME280;15333;50.010;20.020;2023-02-10T16:45:55;100634.78;;;1.40;69.74
28008;BME280;15333;50.010;20.020;2023-02-10T16:48:56;100655.84;;;1.43;69.96
28008;BME280;15333;50.010;20.020;2023-02-10T16:51:57;100650.56;;;1.43;69.01
28008;BME280;15333;50.010;20.020;2023-02-10T16:54:58;100651.41;;;1.48;70.12
28008;BME280;15333;50.010;20.020;2023-02-10T16:57:59;100654.13;;;1.39;70.16
28008;BME280;15333;50.010;20.020;2023-02-10T17:01:00;100645.31;;;1.40;69.75
28008;BME280;15333;50.010;20.020;2023-02-10T17:04:01;100646.22;;;1.39;70.76
28008;BME280;15333;50.010;20.020;2023-02-10T17:07:02;100640.00;;;1.43;70.30
28008;BME280;15333;50.010;20.020;2023-02-10T17:10:04;100652.34;;;1.41;70.49
28008;BME280;15333;50.010;20.020;2023-02-10T17:13:06;100646.97;;;1.53;69.83
28008;BME280;15333;50.010;20.020;2023-02-10T17:16:24;100645.25;;;1.46;70.18
28008;BME280;15333;50.010;20.020;2023-02-10T17:19:27;100645.31;;;1.40;69.24
28008;BME280;15333;50.010;20.020;2023-02-10T17:22:30;100642.63;;;1.44;69.81
28008;BME280;15333;50.010;20.020;2023-02-10T17:25:31;100648.78;;;1.43;69.98
28008;BME280;15333;50.010;20.020;2023-02-10T17:28:32;100652.34;;;1.41;69.71
28008;BME280;15333;50.010;20.020;2023-02-10T17:31:33;100643.50;;;1.48;69.69